Time;durP1;ratioP1;P1;durP2;ratioP2;P2;SDS_P1;SDS_P2;PMS_P1;PMS_P2;Temp;Humidity;BMP_temperature;BMP_pressure;BME280_temperature;BME280_humidity;BME280_pressure;Samples;Min_cycle;Max_cycle;Signal;HPM_P1;HPM_P2
2022/04/28 00:00:07;;;;;;;;;;;18.50;93.30;;;;;;4999067;28;20200;-56
2022/04/28 00:02:34;;;;;;;;;;;18.50;93.30;;;;;;4996254;28;19956;-55
2022/04/28 00:05:02;;;;;;;;;;;18.50;93.30;;;;;;4988368;28;19930;-55
2022/04/28 00:07:30;;;;;;;;;;;18.50;93.30;;;;;;4994057;28;20031;-57
2022/04/28 00:09:57;;;;;;;;;;;18.50;93.30;;;;;;4992704;28;19936;-53
2022/04/28 00:12:24;;;;;;;;;;;18.50;93.30;;;;;;4991714;28;20397;-54
2022/04/28 00:14:51;;;;;;;;;;;18.50;93.30;;;;;;4995874;28;20305;-53
2022/04/28 00:17:19;;;;;;;;;;;18.50;93.30;;;;;;4999900;28;19937;-55
2022/04/28 00:19:46;;;;;;;;;;;18.50;93.30;;;;;;4989345;28;19929;-60
2022/04/28 00:22:13;;;;;;;;;;;18.50;93.30;;;;;;4997160;28;20221;-56
2022/04/28 00:24:41;;;;;;;;;;;18.50;93.30;;;;;;4996455;28;19938;-57
2022/04/28 00:27:08;;;;;;;;;;;18.50;93.30;;;;;;4999458;28;20464;-55
2022/04/28 00:29:35;;;;;;;;;;;18.50;93.30;;;;;;4992134;28;19926;-57
2022/04/28 00:32:02;;;;;;;;;;;18.40;93.30;;;;;;4993115;28;19926;-54
2022/04/28 00:34:29;;;;;;;;;;;18.40;93.30;;;;;;4994000;28;19925;-57
2022/04/28 00:36:56;;;;;;;;;;;18.40;93.30;;;;;;4997235;28;19925;-58
2022/04/28 00:39:24;;;;;;;;;;;18.40;93.40;;;;;;5003739;28;19929;-58
2022/04/28 00:41:51;;;;;;;;;;;18.40;93.30;;;;;;5003565;28;19933;-58
2022/04/28 00:44:18;;;;;;;;;;;18.50;93.30;;;;;;5003113;28;19953;-59
2022/04/28 00:46:45;;;;;;;;;;;18.40;93.30;;;;;;5025607;28;19932;-58
2022/04/28 00:51:59;;;;;;;;;;;18.40;93.30;;;;;;4994833;28;19929;-56
2022/04/28 00:54:33;;;;;;;;;;;18.40;93.30;;;;;;4995571;28;19929;-58
2022/04/28 00:57:02;;;;;;;;;;;18.50;93.40;;;;;;4999710;28;19926;-55
2022/04/28 00:59:29;;;;;;;;;;;18.40;93.30;;;;;;4992835;28;19953;-58
2022/04/28 01:01:56;;;;;;;;;;;18.40;93.40;;;;;;4993249;28;19925;-57
2022/04/28 01:04:24;;;;;;;;;;;18.40;93.40;;;;;;4991498;28;19925;-57
2022/04/28 01:06:52;;;;;;;;;;;18.40;93.40;;;;;;4999933;28;19937;-58
2022/04/28 01:09:19;;;;;;;;;;;18.40;93.40;;;;;;4990547;28;19934;-58
2022/04/28 01:11:46;;;;;;;;;;;18.40;93.40;;;;;;5000659;28;19929;-56
2022/04/28 01:14:21;;;;;;;;;;;18.40;93.40;;;;;;4993553;28;19929;-58
2022/04/28 01:16:54;;;;;;;;;;;18.40;93.40;;;;;;5008869;28;19926;-57
2022/04/28 01:19:21;;;;;;;;;;;18.40;93.40;;;;;;4994757;28;19926;-54
2022/04/28 01:21:50;;;;;;;;;;;18.40;93.30;;;;;;4997961;28;19930;-57
2022/04/28 01:24:18;;;;;;;;;;;18.40;93.40;;;;;;5007845;28;19925;-56
2022/04/28 01:26:46;;;;;;;;;;;18.40;93.40;;;;;;5005293;28;19925;-55
2022/04/28 01:29:13;;;;;;;;;;;18.40;93.40;;;;;;5032060;28;19949;-58
2022/04/28 01:31:40;;;;;;;;;;;18.40;93.40;;;;;;5002058;28;19929;-57
2022/04/28 01:34:08;;;;;;;;;;;18.40;93.40;;;;;;4991125;28;20317;-59
2022/04/28 01:36:36;;;;;;;;;;;18.40;93.40;;;;;;5008057;28;19925;-56
2022/04/28 01:39:07;;;;;;;;;;;18.40;93.40;;;;;;5004722;28;20409;-55
2022/04/28 01:41:36;;;;;;;;;;;18.40;93.40;;;;;;5004250;28;20357;-57
2022/04/28 01:44:04;;;;;;;;;;;18.30;93.40;;;;;;5006221;28;19953;-56
2022/04/28 01:46:31;;;;;;;;;;;18.30;93.40;;;;;;5021057;28;19929;-56
2022/04/28 01:49:09;;;;;;;;;;;18.40;93.40;;;;;;4990839;28;19929;-59
2022/04/28 01:54:58;;;;;;;;;;;18.40;93.40;;;;;;4995982;28;19930;-58
2022/04/28 01:57:49;;;;;;;;;;;18.40;93.40;;;;;;5005252;28;20036;-58
2022/04/28 02:00:45;;;;;;;;;;;18.30;93.40;;;;;;4991685;28;19998;-57
2022/04/28 02:03:14;;;;;;;;;;;18.30;93.40;;;;;;4989370;28;19941;-58
2022/04/28 02:05:42;;;;;;;;;;;18.30;93.40;;;;;;5001604;28;19933;-58
2022/04/28 02:08:09;;;;;;;;;;;18.40;93.40;;;;;;4992517;28;19937;-56
2022/04/28 02:10:37;;;;;;;;;;;18.30;93.40;;;;;;4989287;28;19929;-59
2022/04/28 02:13:09;;;;;;;;;;;18.30;93.40;;;;;;4989156;28;19945;-55
2022/04/28 02:16:14;;;;;;;;;;;18.30;93.40;;;;;;4999025;28;19930;-53
2022/04/28 02:19:05;;;;;;;;;;;18.30;93.40;;;;;;4991613;28;20397;-58
2022/04/28 02:21:32;;;;;;;;;;;18.30;93.40;;;;;;5007118;28;19930;-56
2022/04/28 02:24:00;;;;;;;;;;;18.30;93.40;;;;;;4999358;28;20281;-58
2022/04/28 02:26:27;;;;;;;;;;;18.30;93.40;;;;;;5006134;28;19925;-53
2022/04/28 02:28:54;;;;;;;;;;;18.30;93.40;;;;;;4988472;28;19925;-54
2022/04/28 02:31:25;;;;;;;;;;;18.30;93.50;;;;;;5001327;28;20324;-58
2022/04/28 02:33:52;;;;;;;;;;;18.30;93.40;;;;;;5003307;28;19930;-58
2022/04/28 02:36:32;;;;;;;;;;;18.30;93.40;;;;;;4993531;28;19937;-59
2022/04/28 02:38:59;;;;;;;;;;;18.30;93.40;;;;;;5001974;28;19925;-55
2022/04/28 02:41:26;;;;;;;;;;;18.30;93.40;;;;;;4992707;28;19955;-57
2022/04/28 02:43:54;;;;;;;;;;;18.30;93.40;;;;;;5002197;28;19926;-57
2022/04/28 02:46:22;;;;;;;;;;;18.30;93.40;;;;;;5030661;28;19937;-54
2022/04/28 02:48:57;;;;;;;;;;;18.20;93.40;;;;;;4988451;28;19926;-56
2022/04/28 02:51:24;;;;;;;;;;;18.20;93.40;;;;;;5004716;28;20297;-58
2022/04/28 02:53:51;;;;;;;;;;;18.30;93.40;;;;;;5007890;28;20424;-56
2022/04/28 02:56:19;;;;;;;;;;;18.20;93.40;;;;;;5013822;28;20449;-55
2022/04/28 02:58:46;;;;;;;;;;;18.20;93.40;;;;;;5001696;28;19925;-57
2022/04/28 03:01:13;;;;;;;;;;;18.20;93.40;;;;;;5005055;28;19930;-57
2022/04/28 03:03:42;;;;;;;;;;;18.20;93.40;;;;;;5006801;28;19926;-57
2022/04/28 03:11:42;;;;;;;;;;;18.20;93.50;;;;;;5004872;28;19925;-57
2022/04/28 03:14:12;;;;;;;;;;;18.20;93.50;;;;;;4994807;28;19936;-55
2022/04/28 03:16:41;;;;;;;;;;;18.20;93.50;;;;;;5003332;28;19930;-57
2022/04/28 03:19:09;;;;;;;;;;;18.20;93.50;;;;;;4995318;28;19930;-55
2022/04/28 03:21:37;;;;;;;;;;;18.20;93.50;;;;;;4997066;28;19930;-54
2022/04/28 03:24:07;;;;;;;;;;;18.20;93.50;;;;;;4987348;28;19937;-56
2022/04/28 03:26:36;;;;;;;;;;;18.20;93.50;;;;;;5002651;28;19933;-57
2022/04/28 03:29:05;;;;;;;;;;;18.20;93.50;;;;;;4988283;28;19929;-58
2022/04/28 03:31:32;;;;;;;;;;;18.20;93.50;;;;;;5029392;28;20353;-58
2022/04/28 03:34:05;;;;;;;;;;;18.20;93.50;;;;;;4994509;28;19933;-57
2022/04/28 03:36:51;;;;;;;;;;;18.20;93.50;;;;;;4995102;28;19929;-58
2022/04/28 03:39:28;;;;;;;;;;;18.20;93.50;;;;;;4987804;28;19925;-55
2022/04/28 03:41:55;;;;;;;;;;;18.10;93.50;;;;;;4996976;28;19932;-58
2022/04/28 03:44:22;;;;;;;;;;;18.20;93.50;;;;;;5009968;28;19930;-59
2022/04/28 03:46:49;;;;;;;;;;;18.10;93.50;;;;;;5017595;28;19930;-58
2022/04/28 03:49:17;;;;;;;;;;;18.20;93.50;;;;;;5019448;28;19972;-57
2022/04/28 03:51:44;;;;;;;;;;;18.10;93.50;;;;;;5054206;28;19929;-58
2022/04/28 03:54:11;;;;;;;;;;;18.10;93.50;;;;;;5018904;28;19936;-57
2022/04/28 03:56:39;;;;;;;;;;;18.10;93.50;;;;;;5009223;28;19926;-60
2022/04/28 03:59:10;;;;;;;;;;;18.10;93.50;;;;;;5020865;28;19925;-57
2022/04/28 04:02:05;;;;;;;;;;;18.10;93.50;;;;;;4995432;28;20414;-57
2022/04/28 04:04:33;;;;;;;;;;;18.20;93.50;;;;;;4996045;28;20068;-56
2022/04/28 04:07:02;;;;;;;;;;;18.10;93.50;;;;;;5003592;28;19933;-56
2022/04/28 04:09:35;;;;;;;;;;;18.10;93.50;;;;;;5005308;28;19949;-54
2022/04/28 04:12:08;;;;;;;;;;;18.10;93.50;;;;;;4987115;28;19930;-55
2022/04/28 04:14:51;;;;;;;;;;;18.10;93.50;;;;;;4999324;28;19929;-53
2022/04/28 04:17:18;;;;;;;;;;;18.10;93.50;;;;;;4995417;28;19930;-56
2022/04/28 04:19:47;;;;;;;;;;;18.10;93.50;;;;;;4997043;28;19930;-54
2022/04/28 04:22:15;;;;;;;;;;;18.10;93.50;;;;;;5028573;28;19932;-56
2022/04/28 04:24:42;;;;;;;;;;;18.10;93.50;;;;;;4999840;28;20405;-57
2022/04/28 04:27:14;;;;;;;;;;;18.10;93.50;;;;;;5008180;28;19929;-58
2022/04/28 04:30:00;;;;;;;;;;;18.10;93.50;;;;;;5004437;28;19926;-54
2022/04/28 04:32:42;;;;;;;;;;;18.10;93.50;;;;;;4988187;28;20270;-57
2022/04/28 04:35:29;;;;;;;;;;;18.10;93.50;;;;;;5027711;28;20301;-56
2022/04/28 04:37:59;;;;;;;;;;;18.10;93.50;;;;;;4990796;28;19929;-57
2022/04/28 04:40:28;;;;;;;;;;;18.10;93.50;;;;;;4991416;28;19929;-57
2022/04/28 04:42:56;;;;;;;;;;;18.10;93.50;;;;;;4986314;28;19926;-57
2022/04/28 04:45:24;;;;;;;;;;;18.10;93.50;;;;;;5008684;28;19929;-56
2022/04/28 04:48:10;;;;;;;;;;;18.10;93.50;;;;;;4999216;28;20313;-57
2022/04/28 04:50:41;;;;;;;;;;;18.10;93.60;;;;;;4999515;28;20308;-56
2022/04/28 04:53:18;;;;;;;;;;;18.00;93.50;;;;;;4987634;28;19944;-57
2022/04/28 04:55:47;;;;;;;;;;;18.00;93.50;;;;;;5004836;28;19930;-62
2022/04/28 04:58:14;;;;;;;;;;;18.10;93.50;;;;;;5022115;28;20380;-55
2022/04/28 05:00:42;;;;;;;;;;;18.00;93.50;;;;;;5027400;28;19930;-56
2022/04/28 05:03:24;;;;;;;;;;;18.00;93.50;;;;;;4998852;28;19929;-56
2022/04/28 05:06:11;;;;;;;;;;;18.00;93.60;;;;;;4994905;28;19926;-57
2022/04/28 05:08:47;;;;;;;;;;;18.10;93.60;;;;;;5034393;28;19930;-56
2022/04/28 05:11:14;;;;;;;;;;;18.10;93.50;;;;;;5020235;28;19932;-55
2022/04/28 05:13:56;;;;;;;;;;;18.10;93.40;;;;;;5005066;28;19925;-58
2022/04/28 05:16:23;;;;;;;;;;;18.20;93.40;;;;;;5015486;28;19937;-57
2022/04/28 05:19:17;;;;;;;;;;;18.20;93.40;;;;;;4979487;28;19930;-54
2022/04/28 05:21:50;;;;;;;;;;;18.20;93.30;;;;;;5010949;28;19944;-57
2022/04/28 05:24:43;;;;;;;;;;;18.20;93.30;;;;;;4994979;28;19940;-56
2022/04/28 05:27:35;;;;;;;;;;;18.30;93.30;;;;;;5002828;28;19926;-56
2022/04/28 05:30:22;;;;;;;;;;;18.30;93.30;;;;;;5013037;28;19948;-57
2022/04/28 05:33:18;;;;;;;;;;;18.30;93.20;;;;;;5014941;28;19933;-56
2022/04/28 05:36:00;;;;;;;;;;;18.40;93.20;;;;;;5001075;28;19926;-55
2022/04/28 05:38:29;;;;;;;;;;;18.30;93.10;;;;;;4998116;28;19936;-58
2022/04/28 05:40:57;;;;;;;;;;;18.40;93.10;;;;;;4996978;28;19930;-58
2022/04/28 05:46:12;;;;;;;;;;;18.40;93.20;;;;;;5037843;28;19929;-57
2022/04/28 05:48:40;;;;;;;;;;;18.30;93.10;;;;;;5014682;28;19938;-56
2022/04/28 05:51:11;;;;;;;;;;;18.40;93.20;;;;;;5016620;28;19934;-56
2022/04/28 05:53:39;;;;;;;;;;;18.40;93.20;;;;;;5010849;28;19925;-61
2022/04/28 05:56:07;;;;;;;;;;;18.40;93.20;;;;;;5043360;28;19926;-58
2022/04/28 05:58:44;;;;;;;;;;;18.30;93.20;;;;;;4996734;28;19926;-56
2022/04/28 06:01:43;;;;;;;;;;;18.30;93.20;;;;;;5001805;28;19945;-57
2022/04/28 06:04:15;;;;;;;;;;;18.30;93.20;;;;;;4998954;28;20029;-59
2022/04/28 06:06:46;;;;;;;;;;;18.30;93.20;;;;;;5005619;28;19926;-57
2022/04/28 06:09:33;;;;;;;;;;;18.30;93.20;;;;;;4989803;28;19937;-55
2022/04/28 06:12:00;;;;;;;;;;;18.30;93.20;;;;;;5008023;28;19926;-56
2022/04/28 06:14:36;;;;;;;;;;;18.30;93.20;;;;;;5005213;28;19930;-59
2022/04/28 06:17:33;;;;;;;;;;;18.30;93.30;;;;;;4987750;28;20321;-57
2022/04/28 06:20:02;;;;;;;;;;;18.30;93.30;;;;;;5005363;28;19937;-58
2022/04/28 06:23:03;;;;;;;;;;;18.20;93.30;;;;;;5011339;28;19941;-58
2022/04/28 06:25:37;;;;;;;;;;;18.20;93.60;;;;;;5002490;28;19926;-59
2022/04/28 06:28:04;;;;;;;;;;;18.20;93.30;;;;;;4991879;28;19940;-57
2022/04/28 06:30:34;;;;;;;;;;;18.20;93.30;;;;;;5001451;28;19936;-57
2022/04/28 06:33:30;;;;;;;;;;;18.20;93.40;;;;;;4989382;28;20381;-61
2022/04/28 06:36:07;;;;;;;;;;;18.20;93.30;;;;;;5000275;28;19936;-58
2022/04/28 06:38:42;;;;;;;;;;;18.20;93.30;;;;;;4991338;28;19934;-57
2022/04/28 06:41:11;;;;;;;;;;;18.20;93.30;;;;;;5012390;28;19936;-62
2022/04/28 06:43:45;;;;;;;;;;;18.20;93.30;;;;;;5029065;28;19933;-62
2022/04/28 06:46:30;;;;;;;;;;;18.20;93.40;;;;;;5008131;28;19926;-62
2022/04/28 06:49:16;;;;;;;;;;;18.20;93.40;;;;;;5004687;28;19936;-60
2022/04/28 06:52:18;;;;;;;;;;;18.20;93.60;;;;;;5006296;28;19929;-56
2022/04/28 06:55:08;;;;;;;;;;;18.20;93.40;;;;;;4993538;28;19930;-59
2022/04/28 06:57:37;;;;;;;;;;;18.30;93.40;;;;;;5027780;28;20380;-60
2022/04/28 07:00:17;;;;;;;;;;;18.30;93.50;;;;;;4999850;28;20042;-57
2022/04/28 07:02:49;;;;;;;;;;;18.30;93.50;;;;;;5004059;28;20388;-59
2022/04/28 07:05:20;;;;;;;;;;;18.30;93.50;;;;;;4991539;28;20254;-57
2022/04/28 07:07:47;;;;;;;;;;;18.30;93.50;;;;;;4988432;28;19926;-57
2022/04/28 07:10:21;;;;;;;;;;;18.30;93.50;;;;;;4994193;28;20301;-56
2022/04/28 07:12:49;;;;;;;;;;;18.30;93.50;;;;;;5006687;28;19936;-56
2022/04/28 07:15:38;;;;;;;;;;;18.30;93.50;;;;;;5007213;28;20507;-59
2022/04/28 07:18:37;;;;;;;;;;;18.30;93.60;;;;;;4984318;28;19930;-56
2022/04/28 07:21:06;;;;;;;;;;;18.30;93.60;;;;;;5027291;28;19926;-60
2022/04/28 07:23:37;;;;;;;;;;;18.30;93.60;;;;;;4989503;28;20290;-59
2022/04/28 07:26:04;;;;;;;;;;;18.40;93.60;;;;;;5005677;28;19930;-59
2022/04/28 07:28:32;;;;;;;;;;;18.40;93.70;;;;;;4992555;28;19934;-59
2022/04/28 07:30:59;;;;;;;;;;;18.40;93.60;;;;;;4997573;28;19930;-58
2022/04/28 07:33:45;;;;;;;;;;;18.40;93.60;;;;;;5006919;28;19973;-57
2022/04/28 07:36:30;;;;;;;;;;;18.40;93.60;;;;;;5007962;28;19932;-59
2022/04/28 07:39:23;;;;;;;;;;;18.50;93.60;;;;;;5006937;28;19948;-57
2022/04/28 07:42:20;;;;;;;;;;;18.50;93.60;;;;;;5001498;28;20297;-59
2022/04/28 07:44:48;;;;;;;;;;;18.50;93.60;;;;;;5006789;28;19936;-56
2022/04/28 07:47:17;;;;;;;;;;;18.50;93.60;;;;;;5009093;28;19930;-57
2022/04/28 07:50:07;;;;;;;;;;;18.50;93.60;;;;;;4999966;28;20240;-58
2022/04/28 07:52:35;;;;;;;;;;;18.60;93.70;;;;;;4992165;28;20373;-57
2022/04/28 07:55:03;;;;;;;;;;;18.50;93.70;;;;;;5007125;28;19998;-59
2022/04/28 07:57:30;;;;;;;;;;;18.60;93.70;;;;;;5011901;28;19938;-57
2022/04/28 07:59:57;;;;;;;;;;;18.60;93.80;;;;;;4996525;28;19925;-58
2022/04/28 08:02:26;;;;;;;;;;;18.60;93.80;;;;;;5002597;28;19956;-56
2022/04/28 08:04:54;;;;;;;;;;;18.60;93.80;;;;;;4992981;28;19952;-57
2022/04/28 08:07:23;;;;;;;;;;;18.60;93.80;;;;;;5002196;28;19974;-57
2022/04/28 08:09:54;;;;;;;;;;;18.60;93.80;;;;;;4993503;28;19934;-58
2022/04/28 08:12:23;;;;;;;;;;;18.60;93.90;;;;;;4997072;28;20320;-58
2022/04/28 08:15:30;;;;;;;;;;;18.60;93.90;;;;;;5003634;28;19936;-54
2022/04/28 08:17:59;;;;;;;;;;;18.60;93.90;;;;;;4987800;28;19929;-59
2022/04/28 08:20:27;;;;;;;;;;;18.60;93.90;;;;;;5001149;28;20202;-55
2022/04/28 08:22:56;;;;;;;;;;;18.70;93.90;;;;;;5000312;28;19929;-57
2022/04/28 08:25:24;;;;;;;;;;;18.60;93.90;;;;;;4998872;28;20415;-54
2022/04/28 08:27:53;;;;;;;;;;;18.60;94.00;;;;;;4995500;28;19933;-55
2022/04/28 08:30:20;;;;;;;;;;;18.70;94.00;;;;;;4993278;28;19925;-57
2022/04/28 08:32:48;;;;;;;;;;;18.60;94.00;;;;;;4987148;28;19926;-57
2022/04/28 08:35:15;;;;;;;;;;;18.60;94.00;;;;;;4992626;28;19925;-58
2022/04/28 08:37:43;;;;;;;;;;;18.60;94.00;;;;;;5039686;28;20578;-56
2022/04/28 08:40:11;;;;;;;;;;;18.70;94.00;;;;;;4998672;28;19925;-58
2022/04/28 08:42:40;;;;;;;;;;;18.70;94.00;;;;;;4995365;28;19929;-57
2022/04/28 08:45:17;;;;;;;;;;;18.70;94.10;;;;;;4992099;28;19937;-55
2022/04/28 08:48:16;;;;;;;;;;;18.70;94.10;;;;;;5001145;28;20333;-55
2022/04/28 08:51:08;;;;;;;;;;;18.70;94.10;;;;;;5004728;28;20406;-55
2022/04/28 08:53:36;;;;;;;;;;;18.70;94.10;;;;;;4998557;28;20313;-58
2022/04/28 08:56:04;;;;;;;;;;;18.70;94.30;;;;;;4989934;28;19930;-56
2022/04/28 08:58:31;;;;;;;;;;;18.70;94.10;;;;;;5006287;28;19929;-57
2022/04/28 09:01:04;;;;;;;;;;;18.70;94.10;;;;;;5004129;28;20412;-55
2022/04/28 09:03:50;;;;;;;;;;;18.70;94.10;;;;;;4997892;28;19937;-56
2022/04/28 09:06:56;;;;;;;;;;;18.70;94.10;;;;;;5001232;28;19937;-57
2022/04/28 09:09:29;;;;;;;;;;;18.70;94.10;;;;;;5010593;28;19936;-57
2022/04/28 09:12:20;;;;;;;;;;;18.70;94.10;;;;;;5010953;28;19933;-56
2022/04/28 09:15:12;;;;;;;;;;;18.70;94.10;;;;;;4999130;28;19925;-57
2022/04/28 09:17:51;;;;;;;;;;;18.70;94.20;;;;;;5022504;28;19925;-57
2022/04/28 09:20:21;;;;;;;;;;;18.70;94.20;;;;;;4994826;28;20424;-55
2022/04/28 09:22:53;;;;;;;;;;;18.70;94.20;;;;;;5037211;28;19937;-61
2022/04/28 09:25:25;;;;;;;;;;;18.70;94.20;;;;;;5005896;28;20013;-55
2022/04/28 09:27:52;;;;;;;;;;;18.70;94.20;;;;;;5002781;28;20673;-53
2022/04/28 09:30:22;;;;;;;;;;;18.70;94.20;;;;;;5032522;28;20444;-58
2022/04/28 09:33:13;;;;;;;;;;;18.70;94.20;;;;;;4994852;28;19929;-58
2022/04/28 09:36:10;;;;;;;;;;;18.70;94.20;;;;;;4998423;28;20404;-50
2022/04/28 09:38:53;;;;;;;;;;;18.70;94.20;;;;;;5004709;28;19933;-54
2022/04/28 09:44:12;;;;;;;;;;;18.70;94.20;;;;;;5004011;28;19933;-56
2022/04/28 09:46:46;;;;;;;;;;;18.70;94.20;;;;;;4989946;28;19952;-55
2022/04/28 09:49:16;;;;;;;;;;;18.70;94.20;;;;;;4991221;28;19937;-57
2022/04/28 09:52:10;;;;;;;;;;;18.70;94.20;;;;;;5014618;28;19926;-57
2022/04/28 09:54:58;;;;;;;;;;;18.80;94.20;;;;;;5000954;28;19929;-56
2022/04/28 09:57:30;;;;;;;;;;;18.80;94.20;;;;;;5040904;28;19932;-58
2022/04/28 09:59:59;;;;;;;;;;;18.80;94.20;;;;;;5018487;28;20018;-60
2022/04/28 10:02:28;;;;;;;;;;;18.80;94.20;;;;;;5044415;28;19952;-59
2022/04/28 10:05:02;;;;;;;;;;;18.80;94.20;;;;;;5011415;28;19933;-59
2022/04/28 10:07:45;;;;;;;;;;;18.80;94.20;;;;;;5005208;28;20288;-56
2022/04/28 10:10:13;;;;;;;;;;;18.80;94.20;;;;;;5004674;28;19936;-56
2022/04/28 10:12:40;;;;;;;;;;;18.80;94.20;;;;;;5005168;28;19933;-56
2022/04/28 10:15:26;;;;;;;;;;;18.70;94.20;;;;;;4999828;28;19933;-55
2022/04/28 10:17:57;;;;;;;;;;;18.80;94.20;;;;;;4999993;28;20013;-58
2022/04/28 10:20:32;;;;;;;;;;;18.80;94.20;;;;;;5005130;28;20211;-56
2022/04/28 10:32:22;;;;;;;;;;;18.80;94.20;;;;;;5005439;28;20493;-56
2022/04/28 10:32:23;;;;;;;;;;;18.80;94.20;;;;;;4999389;28;19956;-59
2022/04/28 10:34:58;;;;;;;;;;;18.80;94.20;;;;;;5002995;28;19925;-58
2022/04/28 10:37:41;;;;;;;;;;;18.80;94.20;;;;;;4991314;28;19933;-55
2022/04/28 10:40:13;;;;;;;;;;;18.80;94.20;;;;;;5004659;28;19926;-55
2022/04/28 10:42:40;;;;;;;;;;;18.80;94.20;;;;;;4993265;28;19930;-57
2022/04/28 10:45:18;;;;;;;;;;;18.80;94.20;;;;;;5009339;28;19934;-54
2022/04/28 10:47:45;;;;;;;;;;;18.80;94.20;;;;;;4996206;28;19930;-54
2022/04/28 10:50:21;;;;;;;;;;;18.80;94.20;;;;;;5007468;28;20416;-58
2022/04/28 10:52:53;;;;;;;;;;;18.80;94.20;;;;;;4993608;28;20425;-55
2022/04/28 10:55:23;;;;;;;;;;;18.80;94.20;;;;;;4994057;28;19932;-58
2022/04/28 10:57:51;;;;;;;;;;;18.80;94.20;;;;;;5005561;28;19925;-57
2022/04/28 11:00:47;;;;;;;;;;;18.80;94.20;;;;;;5006510;28;19930;-59
2022/04/28 11:03:15;;;;;;;;;;;18.80;94.20;;;;;;5005801;28;19933;-59
2022/04/28 11:05:43;;;;;;;;;;;18.80;94.20;;;;;;5007485;28;19937;-58
2022/04/28 11:08:22;;;;;;;;;;;18.80;94.20;;;;;;4997219;28;20335;-58
2022/04/28 11:11:02;;;;;;;;;;;18.80;94.20;;;;;;5006389;28;19929;-57
2022/04/28 11:13:30;;;;;;;;;;;18.80;94.10;;;;;;4995357;28;19965;-54
2022/04/28 11:15:57;;;;;;;;;;;18.80;94.10;;;;;;5010418;28;19936;-58
2022/04/28 11:18:24;;;;;;;;;;;18.80;94.10;;;;;;4991126;28;19990;-55
2022/04/28 11:20:57;;;;;;;;;;;18.90;94.10;;;;;;5012733;28;19936;-57
2022/04/28 11:23:24;;;;;;;;;;;18.80;94.10;;;;;;4998043;28;20406;-58
2022/04/28 11:25:51;;;;;;;;;;;18.80;94.10;;;;;;4997024;28;19929;-57
2022/04/28 11:28:20;;;;;;;;;;;18.80;94.10;;;;;;5020434;28;19936;-54
2022/04/28 11:30:48;;;;;;;;;;;18.80;94.10;;;;;;5000663;28;20286;-54
2022/04/28 11:33:16;;;;;;;;;;;18.80;94.10;;;;;;5020173;28;19938;-57
2022/04/28 11:35:43;;;;;;;;;;;18.80;94.10;;;;;;4998566;28;20403;-58
2022/04/28 11:38:11;;;;;;;;;;;18.80;94.00;;;;;;5003978;28;19930;-58
2022/04/28 11:40:44;;;;;;;;;;;18.80;94.10;;;;;;4996771;28;19945;-55
2022/04/28 11:43:11;;;;;;;;;;;18.80;94.10;;;;;;5003668;28;19930;-58
2022/04/28 11:45:38;;;;;;;;;;;18.90;94.10;;;;;;5000471;28;19929;-55
2022/04/28 11:48:05;;;;;;;;;;;18.80;94.10;;;;;;5004815;28;19926;-56
2022/04/28 11:50:34;;;;;;;;;;;18.90;94.10;;;;;;5005643;28;19925;-57
2022/04/28 11:53:04;;;;;;;;;;;18.90;94.10;;;;;;5001726;28;19929;-54
2022/04/28 11:55:35;;;;;;;;;;;18.90;94.00;;;;;;4998330;28;19930;-58
2022/04/28 11:58:03;;;;;;;;;;;18.90;94.00;;;;;;5013193;28;19941;-56
2022/04/28 12:00:40;;;;;;;;;;;18.90;94.00;;;;;;5012404;28;19926;-57
2022/04/28 12:03:08;;;;;;;;;;;18.90;94.00;;;;;;4990922;28;20337;-55
2022/04/28 12:05:35;;;;;;;;;;;18.90;93.90;;;;;;5001135;28;19929;-56
2022/04/28 12:08:03;;;;;;;;;;;18.90;93.90;;;;;;4991494;28;19929;-57
2022/04/28 12:16:07;;;;;;;;;;;18.90;93.90;;;;;;5001453;28;19929;-55
2022/04/28 12:21:24;;;;;;;;;;;18.90;93.90;;;;;;4989244;28;19937;-56
2022/04/28 12:23:52;;;;;;;;;;;18.90;93.90;;;;;;5003312;28;19929;-54
2022/04/28 12:26:26;;;;;;;;;;;18.90;93.90;;;;;;4988389;28;19937;-56
2022/04/28 12:28:54;;;;;;;;;;;18.90;93.90;;;;;;4993622;28;19948;-56
2022/04/28 12:31:28;;;;;;;;;;;18.90;93.80;;;;;;5006718;28;19932;-58
2022/04/28 12:34:19;;;;;;;;;;;19.00;93.90;;;;;;5000595;28;20317;-56
2022/04/28 12:36:57;;;;;;;;;;;18.90;93.80;;;;;;5006808;28;20279;-58
2022/04/28 12:39:49;;;;;;;;;;;19.00;93.90;;;;;;5004414;28;19929;-57
2022/04/28 12:42:16;;;;;;;;;;;19.00;93.90;;;;;;4988657;28;19933;-55
2022/04/28 12:44:44;;;;;;;;;;;19.00;93.80;;;;;;4999018;28;19974;-58
2022/04/28 12:47:12;;;;;;;;;;;18.90;93.80;;;;;;5011732;28;19925;-56
2022/04/28 12:49:48;;;;;;;;;;;19.00;93.70;;;;;;5000842;28;19930;-58
2022/04/28 12:52:29;;;;;;;;;;;19.00;93.70;;;;;;4995858;28;19934;-57
2022/04/28 12:55:02;;;;;;;;;;;19.00;93.70;;;;;;5001955;28;20254;-57
2022/04/28 12:57:30;;;;;;;;;;;19.10;93.70;;;;;;5005636;28;20329;-59
2022/04/28 13:00:02;;;;;;;;;;;19.10;93.60;;;;;;5010663;28;19929;-55
2022/04/28 13:02:30;;;;;;;;;;;19.10;93.60;;;;;;4995844;28;19926;-55
2022/04/28 13:05:09;;;;;;;;;;;19.10;93.60;;;;;;4994736;28;19929;-58
2022/04/28 13:07:56;;;;;;;;;;;19.10;93.60;;;;;;4992918;28;20401;-55
2022/04/28 13:10:24;;;;;;;;;;;19.00;93.70;;;;;;5000707;28;19937;-55
2022/04/28 13:12:52;;;;;;;;;;;19.00;93.70;;;;;;4997167;28;19926;-53
2022/04/28 13:15:19;;;;;;;;;;;19.00;93.70;;;;;;4998066;28;19945;-56
2022/04/28 13:17:46;;;;;;;;;;;19.10;93.70;;;;;;4997696;28;19930;-54
2022/04/28 13:20:14;;;;;;;;;;;19.10;93.60;;;;;;4993400;28;19930;-55
2022/04/28 13:22:41;;;;;;;;;;;19.20;93.60;;;;;;4994520;28;19937;-58
2022/04/28 13:25:08;;;;;;;;;;;19.20;93.50;;;;;;4996310;28;19933;-57
2022/04/28 13:27:35;;;;;;;;;;;19.30;93.60;;;;;;4995473;28;20386;-57
2022/04/28 13:30:02;;;;;;;;;;;19.30;93.60;;;;;;4991474;28;20028;-57
2022/04/28 13:32:29;;;;;;;;;;;19.40;93.60;;;;;;4990752;28;19929;-56
2022/04/28 13:34:57;;;;;;;;;;;19.40;93.60;;;;;;4995718;28;19997;-59
2022/04/28 13:37:24;;;;;;;;;;;19.40;93.60;;;;;;4993478;28;19929;-57
2022/04/28 13:39:51;;;;;;;;;;;19.40;93.50;;;;;;4993086;28;19934;-56
2022/04/28 13:42:18;;;;;;;;;;;19.50;93.50;;;;;;5003379;28;20031;-57
2022/04/28 13:44:46;;;;;;;;;;;19.60;93.40;;;;;;4992871;28;19941;-59
2022/04/28 13:47:13;;;;;;;;;;;19.60;93.30;;;;;;5008719;28;19930;-57
2022/04/28 13:49:40;;;;;;;;;;;19.60;93.30;;;;;;5011901;28;20407;-58
2022/04/28 13:52:07;;;;;;;;;;;19.70;93.20;;;;;;4997438;28;20123;-55
2022/04/28 13:54:34;;;;;;;;;;;19.70;93.40;;;;;;4994997;28;19937;-54
2022/04/28 13:57:03;;;;;;;;;;;19.70;93.10;;;;;;5002361;28;19929;-58
2022/04/28 13:59:30;;;;;;;;;;;19.70;93.20;;;;;;5003135;28;19926;-58
2022/04/28 14:01:57;;;;;;;;;;;19.70;93.10;;;;;;5005692;28;19940;-57
2022/04/28 14:04:25;;;;;;;;;;;19.80;93.00;;;;;;4994941;28;19926;-54
2022/04/28 14:06:53;;;;;;;;;;;19.80;92.90;;;;;;5005907;28;19936;-59
2022/04/28 14:09:23;;;;;;;;;;;19.90;92.90;;;;;;5000164;28;19949;-60
2022/04/28 14:11:51;;;;;;;;;;;19.90;92.90;;;;;;5004088;28;19944;-57
2022/04/28 14:14:19;;;;;;;;;;;19.90;92.90;;;;;;4991706;28;19949;-58
2022/04/28 14:16:48;;;;;;;;;;;20.00;92.90;;;;;;5007266;28;19936;-54
2022/04/28 14:19:16;;;;;;;;;;;20.00;92.80;;;;;;4997785;28;19925;-55
2022/04/28 14:21:43;;;;;;;;;;;20.10;92.80;;;;;;4999825;28;20417;-58
2022/04/28 14:24:10;;;;;;;;;;;20.00;92.70;;;;;;5002819;28;19929;-57
2022/04/28 14:26:37;;;;;;;;;;;20.10;92.70;;;;;;4994394;28;19933;-56
2022/04/28 14:29:05;;;;;;;;;;;20.10;92.70;;;;;;4991856;28;19929;-57
2022/04/28 14:31:32;;;;;;;;;;;20.20;92.70;;;;;;4989675;28;20313;-55
2022/04/28 14:34:21;;;;;;;;;;;20.20;92.70;;;;;;4995518;28;20313;-58
2022/04/28 14:36:49;;;;;;;;;;;20.30;92.70;;;;;;4993526;28;20202;-57
2022/04/28 14:39:16;;;;;;;;;;;20.30;92.60;;;;;;4996485;28;19925;-60
2022/04/28 14:41:43;;;;;;;;;;;20.30;92.60;;;;;;4998807;28;19936;-58
2022/04/28 14:44:31;;;;;;;;;;;20.30;92.60;;;;;;4990060;28;19933;-55
2022/04/28 14:46:58;;;;;;;;;;;20.40;92.60;;;;;;5007480;28;19933;-59
2022/04/28 14:52:21;;;;;;;;;;;20.50;92.60;;;;;;5009388;28;19926;-57
2022/04/28 14:54:53;;;;;;;;;;;20.50;92.50;;;;;;4998259;28;19933;-58
2022/04/28 14:57:39;;;;;;;;;;;20.50;92.50;;;;;;5000177;28;19929;-55
2022/04/28 15:00:08;;;;;;;;;;;20.50;92.50;;;;;;5010643;28;19932;-56
2022/04/28 15:02:35;;;;;;;;;;;20.60;92.40;;;;;;5003367;28;20349;-58
2022/04/28 15:05:03;;;;;;;;;;;20.60;92.40;;;;;;5002657;28;19925;-57
2022/04/28 15:07:30;;;;;;;;;;;20.60;92.40;;;;;;5005258;28;20424;-59
2022/04/28 15:09:59;;;;;;;;;;;20.70;92.30;;;;;;4995631;28;19933;-58
2022/04/28 15:12:29;;;;;;;;;;;20.70;92.30;;;;;;5008193;28;19930;-59
2022/04/28 15:14:59;;;;;;;;;;;20.70;92.30;;;;;;5000273;28;19948;-57
2022/04/28 15:17:27;;;;;;;;;;;20.70;92.20;;;;;;5005483;28;19929;-61
2022/04/28 15:19:54;;;;;;;;;;;20.80;92.20;;;;;;4997298;28;19926;-60
2022/04/28 15:22:21;;;;;;;;;;;20.70;92.20;;;;;;4993226;28;19936;-56